sensor_id;sensor_type;location;lat;lon;timestamp;temperature;humidity
4759;DHT22;2393;50.560;12.636;2023-01-24T00:01:41;-0.20;99.90
4759;DHT22;2393;50.560;12.636;2023-01-24T00:04:09;-0.20;99.90
4759;DHT22;2393;50.560;12.636;2023-01-24T00:06:37;-0.30;99.90
4759;DHT22;2393;50.560;12.636;2023-01-24T00:09:07;-0.30;99.90
4759;DHT22;2393;50.560;12.636;2023-01-24T00:11:35;-0.30;99.90
4759;DHT22;2393;50.560;12.636;2023-01-24T00:14:03;-0.30;99.90
4759;DHT22;2393;50.560;12.636;2023-01-24T00:16:31;-0.20;99.90
4759;DHT22;2393;50.560;12.636;2023-01-24T00:18:59;-0.20;99.90
4759;DHT22;2393;50.560;12.636;2023-01-24T00:21:27;-0.20;99.90
4759;DHT22;2393;50.560;12.636;2023-01-24T00:23:55;-0.20;99.90
4759;DHT22;2393;50.560;12.636;2023-01-24T00:26:25;-0.20;99.90
4759;DHT22;2393;50.560;12.636;2023-01-24T00:28:53;-0.20;99.90
4759;DHT22;2393;50.560;12.636;2023-01-24T00:31:23;-0.10;99.90
4759;DHT22;2393;50.560;12.636;2023-01-24T00:33:52;-0.10;99.90
4759;DHT22;2393;50.560;12.636;2023-01-24T00:36:20;-0.10;99.90
4759;DHT22;2393;50.560;12.636;2023-01-24T00:38:48;-0.10;99.90
4759;DHT22;2393;50.560;12.636;2023-01-24T00:41:16;-0.20;99.90
4759;DHT22;2393;50.560;12.636;2023-01-24T00:43:46;-0.20;99.90
4759;DHT22;2393;50.560;12.636;2023-01-24T00:46:17;-0.30;99.90
4759;DHT22;2393;50.560;12.636;2023-01-24T00:48:48;-0.30;99.90
4759;DHT22;2393;50.560;12.636;2023-01-24T00:51:16;-0.30;99.90
4759;DHT22;2393;50.560;12.636;2023-01-24T00:53:44;-0.30;99.90
4759;DHT22;2393;50.560;12.636;2023-01-24T00:56:12;-0.40;99.90
4759;DHT22;2393;50.560;12.636;2023-01-24T00:58:41;-0.30;99.90
4759;DHT22;2393;50.560;12.636;2023-01-24T01:01:10;-0.30;99.90
4759;DHT22;2393;50.560;12.636;2023-01-24T01:03:38;-0.30;99.90
4759;DHT22;2393;50.560;12.636;2023-01-24T01:06:09;-0.40;99.90
4759;DHT22;2393;50.560;12.636;2023-01-24T01:08:41;-0.40;99.90
4759;DHT22;2393;50.560;12.636;2023-01-24T01:11:09;-0.40;99.90
4759;DHT22;2393;50.560;12.636;2023-01-24T01:13:37;-0.40;99.90
4759;DHT22;2393;50.560;12.636;2023-01-24T01:16:09;-0.40;99.90
4759;DHT22;2393;50.560;12.636;2023-01-24T01:18:39;-0.40;99.90
4759;DHT22;2393;50.560;12.636;2023-01-24T01:21:07;-0.40;99.90
4759;DHT22;2393;50.560;12.636;2023-01-24T01:23:35;-0.50;99.90
4759;DHT22;2393;50.560;12.636;2023-01-24T01:26:05;-0.40;99.90
4759;DHT22;2393;50.560;12.636;2023-01-24T01:28:34;-0.40;99.90
4759;DHT22;2393;50.560;12.636;2023-01-24T01:31:02;-0.40;99.90
4759;DHT22;2393;50.560;12.636;2023-01-24T01:33:30;-0.30;99.90
4759;DHT22;2393;50.560;12.636;2023-01-24T01:36:00;-0.30;99.90
4759;DHT22;2393;50.560;12.636;2023-01-24T01:38:28;-0.40;99.90
4759;DHT22;2393;50.560;12.636;2023-01-24T01:40:57;-0.40;99.90
4759;DHT22;2393;50.560;12.636;2023-01-24T01:43:27;-0.40;99.90
4759;DHT22;2393;50.560;12.636;2023-01-24T01:45:58;-0.40;99.90
4759;DHT22;2393;50.560;12.636;2023-01-24T01:48:34;-0.40;99.90
4759;DHT22;2393;50.560;12.636;2023-01-24T01:51:06;-0.40;99.90
4759;DHT22;2393;50.560;12.636;2023-01-24T01:53:43;-0.40;99.90
4759;DHT22;2393;50.560;12.636;2023-01-24T01:56:16;-0.40;99.90
4759;DHT22;2393;50.560;12.636;2023-01-24T01:58:48;-0.50;99.90
4759;DHT22;2393;50.560;12.636;2023-01-24T02:01:16;-0.50;99.90
4759;DHT22;2393;50.560;12.636;2023-01-24T02:03:50;-0.50;99.90
4759;DHT22;2393;50.560;12.636;2023-01-24T02:06:32;-0.50;99.90
4759;DHT22;2393;50.560;12.636;2023-01-24T02:09:04;-0.60;99.90
4759;DHT22;2393;50.560;12.636;2023-01-24T02:11:35;-0.50;99.90
4759;DHT22;2393;50.560;12.636;2023-01-24T02:14:09;-0.50;99.90
4759;DHT22;2393;50.560;12.636;2023-01-24T02:16:56;-0.60;99.90
4759;DHT22;2393;50.560;12.636;2023-01-24T02:19:45;-0.60;99.90
4759;DHT22;2393;50.560;12.636;2023-01-24T02:22:20;-0.60;99.90
4759;DHT22;2393;50.560;12.636;2023-01-24T02:24:59;-0.60;99.90
4759;DHT22;2393;50.560;12.636;2023-01-24T02:27:30;-0.60;99.90
4759;DHT22;2393;50.560;12.636;2023-01-24T02:29:58;-0.50;99.90
4759;DHT22;2393;50.560;12.636;2023-01-24T02:32:26;-0.50;99.90
4759;DHT22;2393;50.560;12.636;2023-01-24T02:34:54;-0.50;99.90
4759;DHT22;2393;50.560;12.636;2023-01-24T02:37:24;-0.40;99.90
4759;DHT22;2393;50.560;12.636;2023-01-24T02:39:56;-0.40;99.90
4759;DHT22;2393;50.560;12.636;2023-01-24T02:42:31;-0.40;99.90
4759;DHT22;2393;50.560;12.636;2023-01-24T02:45:05;-0.40;99.90
4759;DHT22;2393;50.560;12.636;2023-01-24T02:47:40;-0.30;99.90
4759;DHT22;2393;50.560;12.636;2023-01-24T02:50:09;-0.30;99.90
4759;DHT22;2393;50.560;12.636;2023-01-24T02:52:39;-0.30;99.90
4759;DHT22;2393;50.560;12.636;2023-01-24T02:55:24;-0.40;99.90
4759;DHT22;2393;50.560;12.636;2023-01-24T02:57:56;-0.40;99.90
4759;DHT22;2393;50.560;12.636;2023-01-24T03:00:38;-0.30;99.90
4759;DHT22;2393;50.560;12.636;2023-01-24T03:03:09;-0.30;99.90
4759;DHT22;2393;50.560;12.636;2023-01-24T03:05:37;-0.30;99.90
4759;DHT22;2393;50.560;12.636;2023-01-24T03:08:29;-0.30;99.90
4759;DHT22;2393;50.560;12.636;2023-01-24T03:11:00;-0.30;99.90
4759;DHT22;2393;50.560;12.636;2023-01-24T03:13:32;-0.30;99.90
4759;DHT22;2393;50.560;12.636;2023-01-24T03:16:18;-0.30;99.90
4759;DHT22;2393;50.560;12.636;2023-01-24T03:19:04;-0.30;99.90
4759;DHT22;2393;50.560;12.636;2023-01-24T03:21:50;-0.30;99.90
4759;DHT22;2393;50.560;12.636;2023-01-24T03:24:36;-0.20;99.90
4759;DHT22;2393;50.560;12.636;2023-01-24T03:27:22;-0.20;99.90
4759;DHT22;2393;50.560;12.636;2023-01-24T03:30:10;-0.20;99.90
4759;DHT22;2393;50.560;12.636;2023-01-24T03:33:00;-0.20;99.90
4759;DHT22;2393;50.560;12.636;2023-01-24T03:35:48;-0.20;99.90
4759;DHT22;2393;50.560;12.636;2023-01-24T03:38:23;-0.20;99.90
4759;DHT22;2393;50.560;12.636;2023-01-24T03:41:09;-0.10;99.90
4759;DHT22;2393;50.560;12.636;2023-01-24T03:43:39;-0.10;99.90
4759;DHT22;2393;50.560;12.636;2023-01-24T03:46:10;-0.10;99.90
4759;DHT22;2393;50.560;12.636;2023-01-24T03:48:56;-0.10;99.90
4759;DHT22;2393;50.560;12.636;2023-01-24T03:51:32;-0.10;99.90
4759;DHT22;2393;50.560;12.636;2023-01-24T03:54:17;-0.10;99.90
4759;DHT22;2393;50.560;12.636;2023-01-24T03:56:57;0.00;99.90
4759;DHT22;2393;50.560;12.636;2023-01-24T03:59:25;0.10;99.90
4759;DHT22;2393;50.560;12.636;2023-01-24T04:01:55;0.10;99.90
4759;DHT22;2393;50.560;12.636;2023-01-24T04:04:26;0.10;99.90
4759;DHT22;2393;50.560;12.636;2023-01-24T04:07:16;0.20;99.90
4759;DHT22;2393;50.560;12.636;2023-01-24T04:09:57;0.10;99.90
4759;DHT22;2393;50.560;12.636;2023-01-24T04:12:26;0.10;99.90
4759;DHT22;2393;50.560;12.636;2023-01-24T04:14:55;0.10;99.90
4759;DHT22;2393;50.560;12.636;2023-01-24T04:17:24;0.00;99.90
4759;DHT22;2393;50.560;12.636;2023-01-24T04:19:53;0.00;99.90
4759;DHT22;2393;50.560;12.636;2023-01-24T04:22:21;0.00;99.90
4759;DHT22;2393;50.560;12.636;2023-01-24T04:24:51;0.10;99.90
4759;DHT22;2393;50.560;12.636;2023-01-24T04:27:21;0.20;99.90
4759;DHT22;2393;50.560;12.636;2023-01-24T04:30:00;0.10;99.90
4759;DHT22;2393;50.560;12.636;2023-01-24T04:32:32;0.10;99.90
4759;DHT22;2393;50.560;12.636;2023-01-24T04:35:06;0.10;99.90
4759;DHT22;2393;50.560;12.636;2023-01-24T04:37:53;0.10;99.90
4759;DHT22;2393;50.560;12.636;2023-01-24T04:40:34;0.10;99.90
4759;DHT22;2393;50.560;12.636;2023-01-24T04:43:02;0.10;99.90
4759;DHT22;2393;50.560;12.636;2023-01-24T04:45:32;0.20;99.90
4759;DHT22;2393;50.560;12.636;2023-01-24T04:48:02;0.10;99.90
4759;DHT22;2393;50.560;12.636;2023-01-24T04:53:25;0.20;99.90
4759;DHT22;2393;50.560;12.636;2023-01-24T04:55:59;0.20;99.90
4759;DHT22;2393;50.560;12.636;2023-01-24T04:58:30;0.30;99.90
4759;DHT22;2393;50.560;12.636;2023-01-24T05:00:59;0.30;99.90
4759;DHT22;2393;50.560;12.636;2023-01-24T05:03:34;0.30;99.90
4759;DHT22;2393;50.560;12.636;2023-01-24T05:06:03;0.30;99.90
4759;DHT22;2393;50.560;12.636;2023-01-24T05:08:32;0.40;99.90
4759;DHT22;2393;50.560;12.636;2023-01-24T05:11:00;0.40;99.90
4759;DHT22;2393;50.560;12.636;2023-01-24T05:13:33;0.40;99.90
4759;DHT22;2393;50.560;12.636;2023-01-24T05:16:03;0.40;99.90
4759;DHT22;2393;50.560;12.636;2023-01-24T05:18:31;0.30;99.90
4759;DHT22;2393;50.560;12.636;2023-01-24T05:21:05;0.30;99.90
4759;DHT22;2393;50.560;12.636;2023-01-24T05:23:34;0.30;99.90
4759;DHT22;2393;50.560;12.636;2023-01-24T05:26:03;0.40;99.90
4759;DHT22;2393;50.560;12.636;2023-01-24T05:28:32;0.40;99.90
4759;DHT22;2393;50.560;12.636;2023-01-24T05:31:01;0.40;99.90
4759;DHT22;2393;50.560;12.636;2023-01-24T05:33:30;0.40;99.90
4759;DHT22;2393;50.560;12.636;2023-01-24T05:35:58;0.40;99.90
4759;DHT22;2393;50.560;12.636;2023-01-24T05:38:32;0.30;99.90
4759;DHT22;2393;50.560;12.636;2023-01-24T05:41:01;0.30;99.90
4759;DHT22;2393;50.560;12.636;2023-01-24T05:43:30;0.30;99.90
4759;DHT22;2393;50.560;12.636;2023-01-24T05:45:59;0.30;99.90
4759;DHT22;2393;50.560;12.636;2023-01-24T05:48:32;0.30;99.90
4759;DHT22;2393;50.560;12.636;2023-01-24T05:51:02;0.40;99.90
4759;DHT22;2393;50.560;12.636;2023-01-24T05:53:33;0.30;99.90
4759;DHT22;2393;50.560;12.636;2023-01-24T05:56:04;0.30;99.90
4759;DHT22;2393;50.560;12.636;2023-01-24T05:58:35;0.30;99.90
4759;DHT22;2393;50.560;12.636;2023-01-24T06:01:10;0.30;99.90
4759;DHT22;2393;50.560;12.636;2023-01-24T06:03:42;0.30;99.90
4759;DHT22;2393;50.560;12.636;2023-01-24T06:06:12;0.40;99.90
4759;DHT22;2393;50.560;12.636;2023-01-24T07:44:03;0.20;99.90
4759;DHT22;2393;50.560;12.636;2023-01-24T07:46:32;0.30;99.90
4759;DHT22;2393;50.560;12.636;2023-01-24T07:49:24;0.30;99.90
4759;DHT22;2393;50.560;12.636;2023-01-24T07:51:52;0.30;99.90
4759;DHT22;2393;50.560;12.636;2023-01-24T07:54:44;0.30;99.90
4759;DHT22;2393;50.560;12.636;2023-01-24T07:57:38;0.40;99.90
4759;DHT22;2393;50.560;12.636;2023-01-24T08:00:08;0.40;99.90
4759;DHT22;2393;50.560;12.636;2023-01-24T08:02:59;0.50;99.90
4759;DHT22;2393;50.560;12.636;2023-01-24T08:05:51;0.40;99.90
4759;DHT22;2393;50.560;12.636;2023-01-24T08:08:20;0.50;99.90
4759;DHT22;2393;50.560;12.636;2023-01-24T08:11:13;0.60;99.90
4759;DHT22;2393;50.560;12.636;2023-01-24T08:14:08;0.70;99.90
4759;DHT22;2393;50.560;12.636;2023-01-24T08:16:38;0.50;99.90
4759;DHT22;2393;50.560;12.636;2023-01-24T08:19:31;0.60;99.90
4759;DHT22;2393;50.560;12.636;2023-01-24T08:22:25;0.50;99.90
4759;DHT22;2393;50.560;12.636;2023-01-24T08:24:53;0.60;99.90
4759;DHT22;2393;50.560;12.636;2023-01-24T08:27:22;0.60;99.90
4759;DHT22;2393;50.560;12.636;2023-01-24T08:29:50;0.60;99.90
4759;DHT22;2393;50.560;12.636;2023-01-24T08:32:19;0.60;99.90
4759;DHT22;2393;50.560;12.636;2023-01-24T08:34:47;0.50;99.90
4759;DHT22;2393;50.560;12.636;2023-01-24T08:37:16;0.60;99.90
4759;DHT22;2393;50.560;12.636;2023-01-24T08:40:10;0.70;99.90
4759;DHT22;2393;50.560;12.636;2023-01-24T08:42:38;0.70;99.90
4759;DHT22;2393;50.560;12.636;2023-01-24T08:45:07;0.80;99.90
4759;DHT22;2393;50.560;12.636;2023-01-24T08:47:36;0.80;99.90
4759;DHT22;2393;50.560;12.636;2023-01-24T08:50:05;0.90;99.90
4759;DHT22;2393;50.560;12.636;2023-01-24T08:52:34;0.90;99.90
4759;DHT22;2393;50.560;12.636;2023-01-24T08:55:01;0.90;99.90
4759;DHT22;2393;50.560;12.636;2023-01-24T08:57:29;0.90;99.90
4759;DHT22;2393;50.560;12.636;2023-01-24T08:59:57;0.90;99.90
4759;DHT22;2393;50.560;12.636;2023-01-24T09:02:25;1.00;99.90
4759;DHT22;2393;50.560;12.636;2023-01-24T09:04:55;1.00;99.90
4759;DHT22;2393;50.560;12.636;2023-01-24T09:07:23;1.00;99.90
4759;DHT22;2393;50.560;12.636;2023-01-24T09:09:51;1.10;99.90
4759;DHT22;2393;50.560;12.636;2023-01-24T09:12:19;1.10;99.90
4759;DHT22;2393;50.560;12.636;2023-01-24T09:14:47;1.20;99.90
4759;DHT22;2393;50.560;12.636;2023-01-24T09:17:15;1.30;99.90
4759;DHT22;2393;50.560;12.636;2023-01-24T09:19:43;1.30;99.90
4759;DHT22;2393;50.560;12.636;2023-01-24T09:22:12;1.20;99.90
4759;DHT22;2393;50.560;12.636;2023-01-24T09:24:40;1.20;99.90
4759;DHT22;2393;50.560;12.636;2023-01-24T09:27:09;1.20;99.90
4759;DHT22;2393;50.560;12.636;2023-01-24T09:29:37;1.30;99.90
4759;DHT22;2393;50.560;12.636;2023-01-24T09:32:05;1.20;99.90
4759;DHT22;2393;50.560;12.636;2023-01-24T09:34:33;1.20;99.90
4759;DHT22;2393;50.560;12.636;2023-01-24T09:37:01;1.20;99.90
4759;DHT22;2393;50.560;12.636;2023-01-24T09:39:31;1.20;99.90
4759;DHT22;2393;50.560;12.636;2023-01-24T09:42:02;1.20;99.90
4759;DHT22;2393;50.560;12.636;2023-01-24T09:44:43;1.20;99.90
4759;DHT22;2393;50.560;12.636;2023-01-24T09:47:18;1.30;99.90
4759;DHT22;2393;50.560;12.636;2023-01-24T09:49:52;1.30;99.90
4759;DHT22;2393;50.560;12.636;2023-01-24T09:52:29;1.30;99.90
4759;DHT22;2393;50.560;12.636;2023-01-24T09:55:05;1.30;99.90
4759;DHT22;2393;50.560;12.636;2023-01-24T09:57:40;1.30;99.90
4759;DHT22;2393;50.560;12.636;2023-01-24T10:00:16;1.20;99.90
4759;DHT22;2393;50.560;12.636;2023-01-24T10:02:46;1.20;99.90
4759;DHT22;2393;50.560;12.636;2023-01-24T10:05:15;1.20;99.90
4759;DHT22;2393;50.560;12.636;2023-01-24T10:08:04;1.20;99.90
4759;DHT22;2393;50.560;12.636;2023-01-24T10:10:43;1.30;99.90
4759;DHT22;2393;50.560;12.636;2023-01-24T10:13:28;1.30;99.90
4759;DHT22;2393;50.560;12.636;2023-01-24T10:16:13;1.20;99.90
4759;DHT22;2393;50.560;12.636;2023-01-24T10:18:52;1.30;99.90
4759;DHT22;2393;50.560;12.636;2023-01-24T10:21:49;1.30;99.90
4759;DHT22;2393;50.560;12.636;2023-01-24T10:24:26;1.30;99.90
4759;DHT22;2393;50.560;12.636;2023-01-24T10:26:59;1.30;99.90
4759;DHT22;2393;50.560;12.636;2023-01-24T10:29:30;1.40;99.90
4759;DHT22;2393;50.560;12.636;2023-01-24T10:32:00;1.60;99.90
4759;DHT22;2393;50.560;12.636;2023-01-24T10:34:33;1.50;99.90
4759;DHT22;2393;50.560;12.636;2023-01-24T10:37:06;1.50;99.90
4759;DHT22;2393;50.560;12.636;2023-01-24T10:39:39;1.60;99.90
4759;DHT22;2393;50.560;12.636;2023-01-24T10:42:18;1.70;99.90
4759;DHT22;2393;50.560;12.636;2023-01-24T10:44:47;1.60;99.90
4759;DHT22;2393;50.560;12.636;2023-01-24T10:47:39;1.70;99.90
4759;DHT22;2393;50.560;12.636;2023-01-24T10:50:12;1.80;99.90
4759;DHT22;2393;50.560;12.636;2023-01-24T10:52:40;1.90;99.90
4759;DHT22;2393;50.560;12.636;2023-01-24T10:55:25;2.00;99.90
4759;DHT22;2393;50.560;12.636;2023-01-24T10:57:59;2.10;99.90
4759;DHT22;2393;50.560;12.636;2023-01-24T11:00:34;2.10;99.90
4759;DHT22;2393;50.560;12.636;2023-01-24T11:03:04;2.20;99.90
4759;DHT22;2393;50.560;12.636;2023-01-24T11:05:38;2.10;99.90
4759;DHT22;2393;50.560;12.636;2023-01-24T11:08:16;2.00;99.90
4759;DHT22;2393;50.560;12.636;2023-01-24T11:10:45;2.00;99.90
4759;DHT22;2393;50.560;12.636;2023-01-24T11:13:34;2.10;99.90
4759;DHT22;2393;50.560;12.636;2023-01-24T11:16:05;2.20;99.90
4759;DHT22;2393;50.560;12.636;2023-01-24T11:18:34;2.20;99.90
4759;DHT22;2393;50.560;12.636;2023-01-24T11:21:07;2.10;99.90
4759;DHT22;2393;50.560;12.636;2023-01-24T11:23:36;1.90;99.90
4759;DHT22;2393;50.560;12.636;2023-01-24T11:26:05;1.90;99.90
4759;DHT22;2393;50.560;12.636;2023-01-24T11:28:37;1.80;99.90
4759;DHT22;2393;50.560;12.636;2023-01-24T11:31:07;1.70;99.90
4759;DHT22;2393;50.560;12.636;2023-01-24T11:33:54;1.40;99.90
4759;DHT22;2393;50.560;12.636;2023-01-24T11:36:39;1.50;99.90
4759;DHT22;2393;50.560;12.636;2023-01-24T11:39:15;1.50;99.90
4759;DHT22;2393;50.560;12.636;2023-01-24T11:41:50;1.40;99.90
4759;DHT22;2393;50.560;12.636;2023-01-24T11:44:40;1.50;99.90
4759;DHT22;2393;50.560;12.636;2023-01-24T11:47:14;1.60;99.90
4759;DHT22;2393;50.560;12.636;2023-01-24T11:50:02;1.70;99.90
4759;DHT22;2393;50.560;12.636;2023-01-24T11:52:52;1.70;99.90
4759;DHT22;2393;50.560;12.636;2023-01-24T11:55:36;1.50;99.90
4759;DHT22;2393;50.560;12.636;2023-01-24T11:58:27;1.60;99.90
4759;DHT22;2393;50.560;12.636;2023-01-24T12:01:04;1.60;99.90
4759;DHT22;2393;50.560;12.636;2023-01-24T12:03:47;1.60;99.90
4759;DHT22;2393;50.560;12.636;2023-01-24T12:06:23;1.70;99.90
4759;DHT22;2393;50.560;12.636;2023-01-24T12:09:13;1.70;99.90
4759;DHT22;2393;50.560;12.636;2023-01-24T12:11:48;1.80;99.90
4759;DHT22;2393;50.560;12.636;2023-01-24T12:14:45;1.70;99.90
4759;DHT22;2393;50.560;12.636;2023-01-24T12:17:23;1.60;99.90
4759;DHT22;2393;50.560;12.636;2023-01-24T12:20:18;1.60;99.90
4759;DHT22;2393;50.560;12.636;2023-01-24T12:23:01;1.70;99.90
4759;DHT22;2393;50.560;12.636;2023-01-24T12:25:32;1.60;99.90
4759;DHT22;2393;50.560;12.636;2023-01-24T12:28:05;1.60;99.90
4759;DHT22;2393;50.560;12.636;2023-01-24T12:30:37;1.70;99.90
4759;DHT22;2393;50.560;12.636;2023-01-24T12:33:14;1.60;99.90
4759;DHT22;2393;50.560;12.636;2023-01-24T12:35:47;1.50;99.90
4759;DHT22;2393;50.560;12.636;2023-01-24T12:38:20;1.50;99.90
4759;DHT22;2393;50.560;12.636;2023-01-24T12:40:53;1.40;99.90
4759;DHT22;2393;50.560;12.636;2023-01-24T12:43:31;1.50;99.90
4759;DHT22;2393;50.560;12.636;2023-01-24T12:46:08;1.40;99.90
4759;DHT22;2393;50.560;12.636;2023-01-24T12:48:45;1.60;99.90
4759;DHT22;2393;50.560;12.636;2023-01-24T12:51:20;1.50;99.90
4759;DHT22;2393;50.560;12.636;2023-01-24T12:54:02;1.50;99.90
4759;DHT22;2393;50.560;12.636;2023-01-24T12:56:39;1.60;99.90
4759;DHT22;2393;50.560;12.636;2023-01-24T12:59:10;1.60;99.90
4759;DHT22;2393;50.560;12.636;2023-01-24T13:01:55;1.70;99.90
4759;DHT22;2393;50.560;12.636;2023-01-24T13:04:35;1.70;99.90
4759;DHT22;2393;50.560;12.636;2023-01-24T13:07:17;1.90;99.90
4759;DHT22;2393;50.560;12.636;2023-01-24T13:09:53;1.90;99.90
4759;DHT22;2393;50.560;12.636;2023-01-24T13:12:25;1.80;99.90
4759;DHT22;2393;50.560;12.636;2023-01-24T13:14:56;1.70;99.90
4759;DHT22;2393;50.560;12.636;2023-01-24T13:20:43;1.70;99.90
4759;DHT22;2393;50.560;12.636;2023-01-24T13:23:31;1.60;99.90
4759;DHT22;2393;50.560;12.636;2023-01-24T13:26:31;1.70;99.90
4759;DHT22;2393;50.560;12.636;2023-01-24T13:29:26;1.70;99.90
4759;DHT22;2393;50.560;12.636;2023-01-24T13:32:05;1.80;99.90
4759;DHT22;2393;50.560;12.636;2023-01-24T13:34:36;1.80;99.90
4759;DHT22;2393;50.560;12.636;2023-01-24T13:37:12;1.80;99.90
4759;DHT22;2393;50.560;12.636;2023-01-24T13:39:46;1.80;99.90
4759;DHT22;2393;50.560;12.636;2023-01-24T13:42:22;1.80;99.90
4759;DHT22;2393;50.560;12.636;2023-01-24T13:44:50;1.60;99.90
4759;DHT22;2393;50.560;12.636;2023-01-24T13:47:27;1.50;99.90
4759;DHT22;2393;50.560;12.636;2023-01-24T13:50:12;1.40;99.90
4759;DHT22;2393;50.560;12.636;2023-01-24T13:52:46;1.40;99.90
4759;DHT22;2393;50.560;12.636;2023-01-24T13:58:28;1.30;99.90
4759;DHT22;2393;50.560;12.636;2023-01-24T14:01:00;1.30;99.90
4759;DHT22;2393;50.560;12.636;2023-01-24T14:03:38;1.30;99.90
4759;DHT22;2393;50.560;12.636;2023-01-24T14:06:12;1.30;99.90
4759;DHT22;2393;50.560;12.636;2023-01-24T14:09:03;1.40;99.90
4759;DHT22;2393;50.560;12.636;2023-01-24T14:11:57;1.30;99.90
4759;DHT22;2393;50.560;12.636;2023-01-24T14:17:45;1.20;99.90
4759;DHT22;2393;50.560;12.636;2023-01-24T14:20:37;1.30;99.90
4759;DHT22;2393;50.560;12.636;2023-01-24T14:23:14;1.20;99.90
4759;DHT22;2393;50.560;12.636;2023-01-24T14:25:54;1.10;99.90
4759;DHT22;2393;50.560;12.636;2023-01-24T14:28:28;1.10;99.90
4759;DHT22;2393;50.560;12.636;2023-01-24T14:31:02;1.10;99.90
4759;DHT22;2393;50.560;12.636;2023-01-24T14:33:43;1.10;99.90
4759;DHT22;2393;50.560;12.636;2023-01-24T14:36:26;1.20;99.90
4759;DHT22;2393;50.560;12.636;2023-01-24T14:39:21;1.20;99.90
4759;DHT22;2393;50.560;12.636;2023-01-24T14:41:54;1.30;99.90
4759;DHT22;2393;50.560;12.636;2023-01-24T14:44:25;1.20;99.90
4759;DHT22;2393;50.560;12.636;2023-01-24T14:46:55;1.10;99.90
4759;DHT22;2393;50.560;12.636;2023-01-24T14:49:27;1.00;99.90
4759;DHT22;2393;50.560;12.636;2023-01-24T14:51:55;0.90;99.90
4759;DHT22;2393;50.560;12.636;2023-01-24T14:54:43;0.90;99.90
4759;DHT22;2393;50.560;12.636;2023-01-24T14:57:21;0.90;99.90
4759;DHT22;2393;50.560;12.636;2023-01-24T15:00:02;0.90;99.90
4759;DHT22;2393;50.560;12.636;2023-01-24T15:02:31;0.70;99.90
4759;DHT22;2393;50.560;12.636;2023-01-24T15:05:00;0.70;99.90
4759;DHT22;2393;50.560;12.636;2023-01-24T15:07:28;0.70;99.90
4759;DHT22;2393;50.560;12.636;2023-01-24T15:09:56;0.70;99.90
4759;DHT22;2393;50.560;12.636;2023-01-24T15:12:29;0.70;99.90
4759;DHT22;2393;50.560;12.636;2023-01-24T15:15:00;0.80;99.90
4759;DHT22;2393;50.560;12.636;2023-01-24T15:17:30;0.80;99.90
4759;DHT22;2393;50.560;12.636;2023-01-24T15:20:07;0.80;99.90
4759;DHT22;2393;50.560;12.636;2023-01-24T15:22:38;0.80;99.90
4759;DHT22;2393;50.560;12.636;2023-01-24T15:25:18;0.90;99.90
4759;DHT22;2393;50.560;12.636;2023-01-24T15:27:48;0.90;99.90
4759;DHT22;2393;50.560;12.636;2023-01-24T15:30:19;0.80;99.90
4759;DHT22;2393;50.560;12.636;2023-01-24T15:32:48;0.80;99.90
4759;DHT22;2393;50.560;12.636;2023-01-24T15:35:32;0.70;99.90
4759;DHT22;2393;50.560;12.636;2023-01-24T15:38:14;0.70;99.90
4759;DHT22;2393;50.560;12.636;2023-01-24T15:40:47;0.70;99.90
4759;DHT22;2393;50.560;12.636;2023-01-24T15:43:21;0.70;99.90
4759;DHT22;2393;50.560;12.636;2023-01-24T15:46:13;0.70;99.90
4759;DHT22;2393;50.560;12.636;2023-01-24T15:49:02;0.70;99.90
4759;DHT22;2393;50.560;12.636;2023-01-24T15:51:33;0.70;99.90
4759;DHT22;2393;50.560;12.636;2023-01-24T15:54:09;0.60;99.90
4759;DHT22;2393;50.560;12.636;2023-01-24T15:56:38;0.60;99.90
4759;DHT22;2393;50.560;12.636;2023-01-24T15:59:20;0.60;99.90
4759;DHT22;2393;50.560;12.636;2023-01-24T16:01:49;0.60;99.90
4759;DHT22;2393;50.560;12.636;2023-01-24T16:04:18;0.60;99.90
4759;DHT22;2393;50.560;12.636;2023-01-24T16:06:46;0.60;99.90
4759;DHT22;2393;50.560;12.636;2023-01-24T16:09:14;0.60;99.90
4759;DHT22;2393;50.560;12.636;2023-01-24T16:11:44;0.60;99.90
4759;DHT22;2393;50.560;12.636;2023-01-24T16:14:18;0.60;99.90
4759;DHT22;2393;50.560;12.636;2023-01-24T16:16:51;0.50;99.90
4759;DHT22;2393;50.560;12.636;2023-01-24T16:19:21;0.50;99.90
4759;DHT22;2393;50.560;12.636;2023-01-24T16:21:51;0.50;99.90
4759;DHT22;2393;50.560;12.636;2023-01-24T16:24:19;0.50;99.90
4759;DHT22;2393;50.560;12.636;2023-01-24T16:26:49;0.40;99.90
4759;DHT22;2393;50.560;12.636;2023-01-24T16:29:18;0.30;99.90
4759;DHT22;2393;50.560;12.636;2023-01-24T16:31:49;0.30;99.90
4759;DHT22;2393;50.560;12.636;2023-01-24T16:34:17;0.30;99.90
4759;DHT22;2393;50.560;12.636;2023-01-24T16:36:45;0.20;99.90
4759;DHT22;2393;50.560;12.636;2023-01-24T16:39:15;0.20;99.90
4759;DHT22;2393;50.560;12.636;2023-01-24T16:41:45;0.00;99.90
4759;DHT22;2393;50.560;12.636;2023-01-24T16:44:14;0.00;99.90
4759;DHT22;2393;50.560;12.636;2023-01-24T16:46:47;0.00;99.90
4759;DHT22;2393;50.560;12.636;2023-01-24T16:49:17;-0.10;99.90
4759;DHT22;2393;50.560;12.636;2023-01-24T16:51:46;-0.10;99.90
4759;DHT22;2393;50.560;12.636;2023-01-24T16:54:16;-0.10;99.90
4759;DHT22;2393;50.560;12.636;2023-01-24T16:56:50;-0.10;99.90
4759;DHT22;2393;50.560;12.636;2023-01-24T16:59:18;0.00;99.90
4759;DHT22;2393;50.560;12.636;2023-01-24T17:01:46;0.00;99.90
4759;DHT22;2393;50.560;12.636;2023-01-24T17:04:14;0.10;99.90
4759;DHT22;2393;50.560;12.636;2023-01-24T17:06:44;0.10;99.90
4759;DHT22;2393;50.560;12.636;2023-01-24T17:09:11;0.10;99.90
4759;DHT22;2393;50.560;12.636;2023-01-24T17:11:39;0.20;99.90
4759;DHT22;2393;50.560;12.636;2023-01-24T17:14:07;0.20;99.90
4759;DHT22;2393;50.560;12.636;2023-01-24T17:16:35;0.10;99.90
4759;DHT22;2393;50.560;12.636;2023-01-24T17:19:03;0.00;99.90
4759;DHT22;2393;50.560;12.636;2023-01-24T17:21:33;-0.10;99.90
4759;DHT22;2393;50.560;12.636;2023-01-24T17:24:03;-0.10;99.90
4759;DHT22;2393;50.560;12.636;2023-01-24T17:26:31;-0.10;99.90
4759;DHT22;2393;50.560;12.636;2023-01-24T17:33:15;-0.10;99.90
4759;DHT22;2393;50.560;12.636;2023-01-24T17:35:43;-0.10;99.90
4759;DHT22;2393;50.560;12.636;2023-01-24T17:38:11;-0.10;99.90
4759;DHT22;2393;50.560;12.636;2023-01-24T17:40:40;-0.10;99.90
4759;DHT22;2393;50.560;12.636;2023-01-24T17:43:10;0.00;99.90
4759;DHT22;2393;50.560;12.636;2023-01-24T17:45:39;0.00;99.90
4759;DHT22;2393;50.560;12.636;2023-01-24T17:48:09;0.00;99.90
4759;DHT22;2393;50.560;12.636;2023-01-24T17:50:39;0.00;99.90
4759;DHT22;2393;50.560;12.636;2023-01-24T17:53:07;0.00;99.90
4759;DHT22;2393;50.560;12.636;2023-01-24T17:55:35;-0.10;99.90
4759;DHT22;2393;50.560;12.636;2023-01-24T17:58:04;-0.20;99.90
4759;DHT22;2393;50.560;12.636;2023-01-24T18:00:33;-0.20;99.90
4759;DHT22;2393;50.560;12.636;2023-01-24T18:03:04;-0.20;99.90
4759;DHT22;2393;50.560;12.636;2023-01-24T18:05:32;-0.20;99.90
4759;DHT22;2393;50.560;12.636;2023-01-24T18:08:03;-0.20;99.90
4759;DHT22;2393;50.560;12.636;2023-01-24T18:10:31;-0.20;99.90
4759;DHT22;2393;50.560;12.636;2023-01-24T18:13:00;-0.10;99.90
4759;DHT22;2393;50.560;12.636;2023-01-24T18:15:29;0.00;99.90
4759;DHT22;2393;50.560;12.636;2023-01-24T18:17:57;0.10;99.90
4759;DHT22;2393;50.560;12.636;2023-01-24T18:20:25;0.00;99.90
4759;DHT22;2393;50.560;12.636;2023-01-24T18:22:53;-0.10;99.90
4759;DHT22;2393;50.560;12.636;2023-01-24T18:25:23;0.00;99.90
4759;DHT22;2393;50.560;12.636;2023-01-24T18:27:51;0.10;99.90
4759;DHT22;2393;50.560;12.636;2023-01-24T18:30:19;0.20;99.90
4759;DHT22;2393;50.560;12.636;2023-01-24T18:32:49;0.20;99.90